sensor_id;sensor_type;location;lat;lon;timestamp;temperature;humidity
32895;DHT22;19251;49.484;8.260;2022-12-29T00:01:20;13.80;26.20
32895;DHT22;19251;49.484;8.260;2022-12-29T00:06:23;13.90;26.00
32895;DHT22;19251;49.484;8.260;2022-12-29T00:11:26;14.00;25.90
32895;DHT22;19251;49.484;8.260;2022-12-29T00:16:31;14.10;26.20
32895;DHT22;19251;49.484;8.260;2022-12-29T00:21:33;14.10;26.30
32895;DHT22;19251;49.484;8.260;2022-12-29T00:43:08;14.20;25.70
32895;DHT22;19251;49.484;8.260;2022-12-29T00:48:29;14.50;25.90
32895;DHT22;19251;49.484;8.260;2022-12-29T00:53:50;14.30;25.70
32895;DHT22;19251;49.484;8.260;2022-12-29T00:58:52;14.50;25.80
32895;DHT22;19251;49.484;8.260;2022-12-29T01:03:54;14.40;25.70
32895;DHT22;19251;49.484;8.260;2022-12-29T01:09:05;14.50;25.70
32895;DHT22;19251;49.484;8.260;2022-12-29T01:14:26;14.50;25.60
32895;DHT22;19251;49.484;8.260;2022-12-29T01:19:29;14.50;25.90
32895;DHT22;19251;49.484;8.260;2022-12-29T01:24:31;14.50;25.80
32895;DHT22;19251;49.484;8.260;2022-12-29T01:29:33;14.50;25.80
32895;DHT22;19251;49.484;8.260;2022-12-29T01:34:35;14.50;26.20
32895;DHT22;19251;49.484;8.260;2022-12-29T01:39:38;14.50;26.00
32895;DHT22;19251;49.484;8.260;2022-12-29T01:45:02;14.50;26.00
32895;DHT22;19251;49.484;8.260;2022-12-29T01:50:16;14.50;26.30
32895;DHT22;19251;49.484;8.260;2022-12-29T01:55:20;14.50;26.40
32895;DHT22;19251;49.484;8.260;2022-12-29T02:00:22;14.40;26.00
32895;DHT22;19251;49.484;8.260;2022-12-29T02:06:24;14.50;26.20
32895;DHT22;19251;49.484;8.260;2022-12-29T02:11:00;14.50;26.00
32895;DHT22;19251;49.484;8.260;2022-12-29T02:16:29;14.60;25.90
32895;DHT22;19251;49.484;8.260;2022-12-29T02:33:00;14.70;25.90
32895;DHT22;19251;49.484;8.260;2022-12-29T02:38:19;14.60;25.90
32895;DHT22;19251;49.484;8.260;2022-12-29T02:48:46;14.70;25.70
32895;DHT22;19251;49.484;8.260;2022-12-29T02:53:54;14.70;25.60
32895;DHT22;19251;49.484;8.260;2022-12-29T03:04:29;14.80;25.50
32895;DHT22;19251;49.484;8.260;2022-12-29T03:15:03;14.70;24.90
32895;DHT22;19251;49.484;8.260;2022-12-29T03:20:41;14.60;24.70
32895;DHT22;19251;49.484;8.260;2022-12-29T03:25:48;14.60;24.70
32895;DHT22;19251;49.484;8.260;2022-12-29T03:30:54;14.50;24.50
32895;DHT22;19251;49.484;8.260;2022-12-29T03:36:01;14.70;24.50
32895;DHT22;19251;49.484;8.260;2022-12-29T03:41:10;14.70;24.40
32895;DHT22;19251;49.484;8.260;2022-12-29T03:46:13;14.70;24.20
32895;DHT22;19251;49.484;8.260;2022-12-29T03:51:15;14.60;24.00
32895;DHT22;19251;49.484;8.260;2022-12-29T03:56:19;14.60;24.00
32895;DHT22;19251;49.484;8.260;2022-12-29T04:01:22;14.80;24.10
32895;DHT22;19251;49.484;8.260;2022-12-29T04:06:25;14.60;23.90
32895;DHT22;19251;49.484;8.260;2022-12-29T04:11:27;14.70;23.90
32895;DHT22;19251;49.484;8.260;2022-12-29T04:16:34;14.80;24.00
32895;DHT22;19251;49.484;8.260;2022-12-29T04:26:44;14.70;23.80
32895;DHT22;19251;49.484;8.260;2022-12-29T04:31:48;14.80;23.90
32895;DHT22;19251;49.484;8.260;2022-12-29T04:36:52;14.80;23.80
32895;DHT22;19251;49.484;8.260;2022-12-29T04:41:54;14.80;23.80
32895;DHT22;19251;49.484;8.260;2022-12-29T04:46:56;14.80;23.80
32895;DHT22;19251;49.484;8.260;2022-12-29T04:51:59;14.80;23.80
32895;DHT22;19251;49.484;8.260;2022-12-29T04:57:02;14.80;24.20
32895;DHT22;19251;49.484;8.260;2022-12-29T05:02:04;14.90;23.70
32895;DHT22;19251;49.484;8.260;2022-12-29T05:07:07;14.80;23.50
32895;DHT22;19251;49.484;8.260;2022-12-29T05:12:09;14.90;23.50
32895;DHT22;19251;49.484;8.260;2022-12-29T05:17:13;14.90;23.50
32895;DHT22;19251;49.484;8.260;2022-12-29T05:22:15;14.90;23.10
32895;DHT22;19251;49.484;8.260;2022-12-29T05:27:19;14.90;23.10
32895;DHT22;19251;49.484;8.260;2022-12-29T05:32:22;15.00;23.20
32895;DHT22;19251;49.484;8.260;2022-12-29T05:37:24;15.10;23.30
32895;DHT22;19251;49.484;8.260;2022-12-29T05:42:26;15.10;23.30
32895;DHT22;19251;49.484;8.260;2022-12-29T05:47:30;15.10;23.00
32895;DHT22;19251;49.484;8.260;2022-12-29T05:52:32;15.10;23.00
32895;DHT22;19251;49.484;8.260;2022-12-29T05:57:35;15.10;22.80
32895;DHT22;19251;49.484;8.260;2022-12-29T06:02:38;15.10;22.80
32895;DHT22;19251;49.484;8.260;2022-12-29T06:07:41;15.10;22.60
32895;DHT22;19251;49.484;8.260;2022-12-29T06:12:44;15.10;22.60
32895;DHT22;19251;49.484;8.260;2022-12-29T06:17:46;15.10;22.60
32895;DHT22;19251;49.484;8.260;2022-12-29T06:22:48;15.20;22.50
32895;DHT22;19251;49.484;8.260;2022-12-29T06:27:51;15.20;22.30
32895;DHT22;19251;49.484;8.260;2022-12-29T06:32:54;15.20;22.20
32895;DHT22;19251;49.484;8.260;2022-12-29T06:37:57;15.10;21.90
32895;DHT22;19251;49.484;8.260;2022-12-29T06:42:59;15.10;21.60
32895;DHT22;19251;49.484;8.260;2022-12-29T06:48:01;15.20;21.20
32895;DHT22;19251;49.484;8.260;2022-12-29T06:53:04;15.20;20.90
32895;DHT22;19251;49.484;8.260;2022-12-29T06:58:06;15.40;21.40
32895;DHT22;19251;49.484;8.260;2022-12-29T07:08:11;15.40;21.30
32895;DHT22;19251;49.484;8.260;2022-12-29T07:13:13;15.40;21.00
32895;DHT22;19251;49.484;8.260;2022-12-29T07:18:15;15.30;21.00
32895;DHT22;19251;49.484;8.260;2022-12-29T07:23:18;15.30;21.10
32895;DHT22;19251;49.484;8.260;2022-12-29T07:28:20;15.30;20.90
32895;DHT22;19251;49.484;8.260;2022-12-29T07:33:22;15.30;21.00
32895;DHT22;19251;49.484;8.260;2022-12-29T07:38:24;15.30;21.20
32895;DHT22;19251;49.484;8.260;2022-12-29T07:43:27;15.30;21.40
32895;DHT22;19251;49.484;8.260;2022-12-29T07:48:30;15.20;20.80
32895;DHT22;19251;49.484;8.260;2022-12-29T07:53:32;14.60;20.10
32895;DHT22;19251;49.484;8.260;2022-12-29T07:58:34;15.40;19.90
32895;DHT22;19251;49.484;8.260;2022-12-29T08:03:36;15.50;20.20
32895;DHT22;19251;49.484;8.260;2022-12-29T08:08:40;15.60;20.10
32895;DHT22;19251;49.484;8.260;2022-12-29T08:13:42;15.80;19.80
32895;DHT22;19251;49.484;8.260;2022-12-29T08:18:44;15.90;20.00
32895;DHT22;19251;49.484;8.260;2022-12-29T08:23:47;15.90;20.10
32895;DHT22;19251;49.484;8.260;2022-12-29T08:28:51;15.90;20.10
32895;DHT22;19251;49.484;8.260;2022-12-29T08:33:53;15.90;20.10
32895;DHT22;19251;49.484;8.260;2022-12-29T08:38:56;15.90;20.10
32895;DHT22;19251;49.484;8.260;2022-12-29T08:43:59;15.90;20.20
32895;DHT22;19251;49.484;8.260;2022-12-29T08:49:01;15.90;20.00
32895;DHT22;19251;49.484;8.260;2022-12-29T08:54:03;16.00;20.10
32895;DHT22;19251;49.484;8.260;2022-12-29T08:59:06;16.00;20.20
32895;DHT22;19251;49.484;8.260;2022-12-29T09:04:08;16.00;20.30
32895;DHT22;19251;49.484;8.260;2022-12-29T09:09:17;16.00;20.20
32895;DHT22;19251;49.484;8.260;2022-12-29T09:14:20;15.90;20.20
32895;DHT22;19251;49.484;8.260;2022-12-29T09:19:23;16.00;20.40
32895;DHT22;19251;49.484;8.260;2022-12-29T09:24:25;16.00;20.40
32895;DHT22;19251;49.484;8.260;2022-12-29T09:29:27;16.00;20.30
32895;DHT22;19251;49.484;8.260;2022-12-29T09:34:29;15.90;20.90
32895;DHT22;19251;49.484;8.260;2022-12-29T09:39:31;15.90;20.70
32895;DHT22;19251;49.484;8.260;2022-12-29T09:44:46;15.90;21.00
32895;DHT22;19251;49.484;8.260;2022-12-29T09:50:03;15.80;21.10
32895;DHT22;19251;49.484;8.260;2022-12-29T09:55:15;15.90;20.90
32895;DHT22;19251;49.484;8.260;2022-12-29T10:00:20;15.90;21.40
32895;DHT22;19251;49.484;8.260;2022-12-29T10:10:48;16.00;21.30
32895;DHT22;19251;49.484;8.260;2022-12-29T10:16:18;16.10;21.50
32895;DHT22;19251;49.484;8.260;2022-12-29T10:21:38;16.20;21.30
32895;DHT22;19251;49.484;8.260;2022-12-29T10:26:43;16.20;21.30
32895;DHT22;19251;49.484;8.260;2022-12-29T10:32:00;16.20;21.20
32895;DHT22;19251;49.484;8.260;2022-12-29T10:42:37;16.30;20.70
32895;DHT22;19251;49.484;8.260;2022-12-29T10:47:54;16.20;20.20
32895;DHT22;19251;49.484;8.260;2022-12-29T10:53:00;16.30;20.60
32895;DHT22;19251;49.484;8.260;2022-12-29T10:58:06;16.30;20.50
32895;DHT22;19251;49.484;8.260;2022-12-29T11:08:15;16.40;21.10
32895;DHT22;19251;49.484;8.260;2022-12-29T11:13:25;16.40;21.20
32895;DHT22;19251;49.484;8.260;2022-12-29T11:18:36;16.40;21.40
32895;DHT22;19251;49.484;8.260;2022-12-29T11:23:41;16.60;21.60
32895;DHT22;19251;49.484;8.260;2022-12-29T11:34:07;16.60;21.60
32895;DHT22;19251;49.484;8.260;2022-12-29T11:39:30;16.70;21.10
32895;DHT22;19251;49.484;8.260;2022-12-29T11:44:37;16.50;20.70
32895;DHT22;19251;49.484;8.260;2022-12-29T11:49:49;16.40;20.80
32895;DHT22;19251;49.484;8.260;2022-12-29T11:54:54;16.40;20.70
32895;DHT22;19251;49.484;8.260;2022-12-29T11:59:58;16.50;20.70
32895;DHT22;19251;49.484;8.260;2022-12-29T12:10:29;16.60;20.20
32895;DHT22;19251;49.484;8.260;2022-12-29T12:15:42;16.60;19.80
32895;DHT22;19251;49.484;8.260;2022-12-29T12:20:54;16.80;19.80
32895;DHT22;19251;49.484;8.260;2022-12-29T12:26:22;17.00;18.60
32895;DHT22;19251;49.484;8.260;2022-12-29T12:37:02;17.00;18.90
32895;DHT22;19251;49.484;8.260;2022-12-29T12:42:31;17.00;18.90
32895;DHT22;19251;49.484;8.260;2022-12-29T12:53:29;17.10;18.70
32895;DHT22;19251;49.484;8.260;2022-12-29T13:26:00;16.60;17.70
32895;DHT22;19251;49.484;8.260;2022-12-29T13:36:06;16.30;18.00
32895;DHT22;19251;49.484;8.260;2022-12-29T13:41:24;16.30;18.10
32895;DHT22;19251;49.484;8.260;2022-12-29T13:46:33;16.10;17.90
32895;DHT22;19251;49.484;8.260;2022-12-29T13:51:40;15.90;18.20
32895;DHT22;19251;49.484;8.260;2022-12-29T13:56:56;15.90;17.90
32895;DHT22;19251;49.484;8.260;2022-12-29T14:07:15;15.60;18.00
32895;DHT22;19251;49.484;8.260;2022-12-29T14:12:31;15.60;18.10
32895;DHT22;19251;49.484;8.260;2022-12-29T14:17:35;15.50;18.30
32895;DHT22;19251;49.484;8.260;2022-12-29T14:23:14;15.30;19.60
32895;DHT22;19251;49.484;8.260;2022-12-29T14:28:25;15.30;19.60
32895;DHT22;19251;49.484;8.260;2022-12-29T14:33:30;15.20;20.70
32895;DHT22;19251;49.484;8.260;2022-12-29T14:38:32;15.10;20.50
32895;DHT22;19251;49.484;8.260;2022-12-29T14:43:35;15.20;20.80
32895;DHT22;19251;49.484;8.260;2022-12-29T14:48:40;14.90;20.90
32895;DHT22;19251;49.484;8.260;2022-12-29T14:53:51;14.80;21.90
32895;DHT22;19251;49.484;8.260;2022-12-29T14:59:00;14.70;21.40
32895;DHT22;19251;49.484;8.260;2022-12-29T15:04:27;14.60;22.70
32895;DHT22;19251;49.484;8.260;2022-12-29T15:09:47;14.50;21.90
32895;DHT22;19251;49.484;8.260;2022-12-29T15:14:56;14.50;22.20
32895;DHT22;19251;49.484;8.260;2022-12-29T15:20:01;14.30;22.10
32895;DHT22;19251;49.484;8.260;2022-12-29T15:25:17;14.40;21.90
32895;DHT22;19251;49.484;8.260;2022-12-29T15:30:20;14.10;21.80
32895;DHT22;19251;49.484;8.260;2022-12-29T15:35:32;14.30;22.10
32895;DHT22;19251;49.484;8.260;2022-12-29T15:40:35;13.90;21.90
32895;DHT22;19251;49.484;8.260;2022-12-29T15:45:37;13.80;22.30
32895;DHT22;19251;49.484;8.260;2022-12-29T15:50:40;13.70;22.50
32895;DHT22;19251;49.484;8.260;2022-12-29T15:55:45;13.60;22.60
32895;DHT22;19251;49.484;8.260;2022-12-29T16:00:53;13.70;22.30
32895;DHT22;19251;49.484;8.260;2022-12-29T16:06:06;13.80;22.60
32895;DHT22;19251;49.484;8.260;2022-12-29T16:11:28;13.50;22.90
32895;DHT22;19251;49.484;8.260;2022-12-29T16:16:36;13.40;22.90
32895;DHT22;19251;49.484;8.260;2022-12-29T16:21:40;13.40;23.10
32895;DHT22;19251;49.484;8.260;2022-12-29T16:27:01;13.40;23.20
32895;DHT22;19251;49.484;8.260;2022-12-29T16:32:24;13.40;23.20
32895;DHT22;19251;49.484;8.260;2022-12-29T16:37:32;13.50;23.30
32895;DHT22;19251;49.484;8.260;2022-12-29T16:53:25;13.50;23.30
32895;DHT22;19251;49.484;8.260;2022-12-29T16:58:28;13.50;23.40
32895;DHT22;19251;49.484;8.260;2022-12-29T17:03:38;13.50;23.20
32895;DHT22;19251;49.484;8.260;2022-12-29T17:08:43;13.50;23.50
32895;DHT22;19251;49.484;8.260;2022-12-29T17:13:45;13.50;23.50
32895;DHT22;19251;49.484;8.260;2022-12-29T17:18:47;13.50;23.80
32895;DHT22;19251;49.484;8.260;2022-12-29T17:23:50;13.50;23.70
32895;DHT22;19251;49.484;8.260;2022-12-29T17:28:52;13.50;23.70
32895;DHT22;19251;49.484;8.260;2022-12-29T17:33:54;13.50;23.80
32895;DHT22;19251;49.484;8.260;2022-12-29T17:38:57;13.50;24.10
32895;DHT22;19251;49.484;8.260;2022-12-29T17:44:00;13.50;24.10
32895;DHT22;19251;49.484;8.260;2022-12-29T17:49:08;13.50;24.20
32895;DHT22;19251;49.484;8.260;2022-12-29T17:54:22;13.50;24.20
32895;DHT22;19251;49.484;8.260;2022-12-29T17:59:25;13.50;24.30
32895;DHT22;19251;49.484;8.260;2022-12-29T18:04:27;13.40;24.10
32895;DHT22;19251;49.484;8.260;2022-12-29T18:14:32;13.40;24.30
32895;DHT22;19251;49.484;8.260;2022-12-29T18:19:34;13.40;24.10
32895;DHT22;19251;49.484;8.260;2022-12-29T18:24:37;13.30;24.10
32895;DHT22;19251;49.484;8.260;2022-12-29T18:29:39;13.30;24.20
32895;DHT22;19251;49.484;8.260;2022-12-29T18:34:42;13.20;24.40
32895;DHT22;19251;49.484;8.260;2022-12-29T18:39:44;13.10;24.50
32895;DHT22;19251;49.484;8.260;2022-12-29T18:44:46;13.10;24.60
32895;DHT22;19251;49.484;8.260;2022-12-29T18:49:48;13.00;25.10
32895;DHT22;19251;49.484;8.260;2022-12-29T18:54:50;13.00;24.90
32895;DHT22;19251;49.484;8.260;2022-12-29T18:59:52;13.00;25.10
32895;DHT22;19251;49.484;8.260;2022-12-29T19:04:54;12.90;25.30
32895;DHT22;19251;49.484;8.260;2022-12-29T19:10:08;12.90;25.80
32895;DHT22;19251;49.484;8.260;2022-12-29T19:25:29;12.90;26.10
32895;DHT22;19251;49.484;8.260;2022-12-29T19:30:31;12.90;26.80
32895;DHT22;19251;49.484;8.260;2022-12-29T19:35:34;12.90;27.10
32895;DHT22;19251;49.484;8.260;2022-12-29T19:40:36;12.80;27.50
32895;DHT22;19251;49.484;8.260;2022-12-29T19:45:43;12.80;27.00
32895;DHT22;19251;49.484;8.260;2022-12-29T19:50:46;12.80;27.00
32895;DHT22;19251;49.484;8.260;2022-12-29T19:55:48;12.80;27.00
32895;DHT22;19251;49.484;8.260;2022-12-29T20:00:51;12.80;27.20
32895;DHT22;19251;49.484;8.260;2022-12-29T20:05:53;12.80;27.00
32895;DHT22;19251;49.484;8.260;2022-12-29T20:11:00;12.80;27.10
32895;DHT22;19251;49.484;8.260;2022-12-29T20:16:05;12.80;27.00
32895;DHT22;19251;49.484;8.260;2022-12-29T20:21:17;12.80;27.20
32895;DHT22;19251;49.484;8.260;2022-12-29T20:26:27;12.80;27.00
32895;DHT22;19251;49.484;8.260;2022-12-29T20:31:36;12.80;27.10
32895;DHT22;19251;49.484;8.260;2022-12-29T20:36:41;12.80;27.10
32895;DHT22;19251;49.484;8.260;2022-12-29T20:41:44;12.80;27.10
32895;DHT22;19251;49.484;8.260;2022-12-29T20:46:47;12.90;27.00
32895;DHT22;19251;49.484;8.260;2022-12-29T20:51:50;12.90;27.00
32895;DHT22;19251;49.484;8.260;2022-12-29T20:57:07;12.90;26.90
32895;DHT22;19251;49.484;8.260;2022-12-29T21:02:20;12.90;27.00
32895;DHT22;19251;49.484;8.260;2022-12-29T21:07:23;12.90;26.90
32895;DHT22;19251;49.484;8.260;2022-12-29T21:12:25;13.00;27.10
32895;DHT22;19251;49.484;8.260;2022-12-29T21:17:27;12.90;27.20
32895;DHT22;19251;49.484;8.260;2022-12-29T21:22:29;12.90;27.00
32895;DHT22;19251;49.484;8.260;2022-12-29T21:27:32;12.90;27.00
32895;DHT22;19251;49.484;8.260;2022-12-29T21:32:34;12.90;27.00
32895;DHT22;19251;49.484;8.260;2022-12-29T21:37:36;12.90;27.00
32895;DHT22;19251;49.484;8.260;2022-12-29T21:42:38;12.80;27.00
32895;DHT22;19251;49.484;8.260;2022-12-29T21:47:40;12.80;27.00
32895;DHT22;19251;49.484;8.260;2022-12-29T21:53:01;12.80;26.90
32895;DHT22;19251;49.484;8.260;2022-12-29T21:58:04;12.80;26.90
32895;DHT22;19251;49.484;8.260;2022-12-29T22:03:44;12.80;26.90
32895;DHT22;19251;49.484;8.260;2022-12-29T22:09:05;12.80;26.80
32895;DHT22;19251;49.484;8.260;2022-12-29T22:14:25;12.80;26.70
32895;DHT22;19251;49.484;8.260;2022-12-29T22:19:27;12.80;26.60
32895;DHT22;19251;49.484;8.260;2022-12-29T22:24:30;12.90;26.50
32895;DHT22;19251;49.484;8.260;2022-12-29T22:29:32;12.90;26.20
32895;DHT22;19251;49.484;8.260;2022-12-29T22:34:35;12.90;26.20
32895;DHT22;19251;49.484;8.260;2022-12-29T22:49:42;12.80;25.80
32895;DHT22;19251;49.484;8.260;2022-12-29T22:54:44;12.80;25.40
32895;DHT22;19251;49.484;8.260;2022-12-29T22:59:46;12.70;25.20
32895;DHT22;19251;49.484;8.260;2022-12-29T23:04:48;12.70;25.30
32895;DHT22;19251;49.484;8.260;2022-12-29T23:10:07;12.60;25.20
32895;DHT22;19251;49.484;8.260;2022-12-29T23:15:09;12.50;25.10
32895;DHT22;19251;49.484;8.260;2022-12-29T23:20:12;12.40;25.10
32895;DHT22;19251;49.484;8.260;2022-12-29T23:25:14;12.30;25.00
32895;DHT22;19251;49.484;8.260;2022-12-29T23:30:16;12.20;25.00
32895;DHT22;19251;49.484;8.260;2022-12-29T23:35:19;12.10;25.00
32895;DHT22;19251;49.484;8.260;2022-12-29T23:40:21;12.20;25.10
32895;DHT22;19251;49.484;8.260;2022-12-29T23:45:23;12.00;25.10
32895;DHT22;19251;49.484;8.260;2022-12-29T23:50:25;11.90;25.10
32895;DHT22;19251;49.484;8.260;2022-12-29T23:55:27;11.90;25.10
